Historyczne dane pomiarowe

Dodano dane terminowe – wersja testowa.

Dane z okresu 1951-2019

Wersja bazy: 1.34 [2019-03-16, lista zmian], aktualizacja planowana na 2019-04-15

Dane meteo z obszaru Polski uzyskane na podstawie danych udostępnionych przez Instytut Meteorologii i Gospodarki Wodnej – Państwowy Instytut Badawczy.

 

Wybierz Datę:    

       

TemperaturaWilgotnośćWiatrCiśnienieOpadyŚniegCzas trwania zjawisk
 Stacja t tx tn tng RH VA  wxwx mslp ppp RRR   cm mm wxwxwxwxwxwxwx
1999-08-14 14.6 20.9 6.9 4.7 65.5- 3.3 0.7---- 0.0------------
1999-08-13 14.2 19.9 7.3 4.8 65.0- 3.3 1.7---- 0.0------------
1999-08-12 16.4 19.5 14.2 13.0 70.5- 6.7 0.7---- 0.0------------
1999-08-11 19.8 23.9 16.5 13.0 77.5- 6.3 2.7---- 3.1------------
1999-08-10 21.1 28.9 14.4 11.9 79.8- 4.7 2.0---- 3.0------------
1999-08-09 22.1 30.7 14.2 11.6 71.3- 2.7 2.0---- 0.0------------
1999-08-08 21.8 29.0 15.4 13.5 76.3- 5.3 1.0---- 0.0------------
1999-08-07 20.8 29.3 11.8 8.9 73.3- 5.7 1.7---- 0.0------------
1999-08-06 19.6 27.0 10.4 7.6 76.8- 6.3 0.3---- 0.0------------
1999-08-05 18.6 25.9 9.9 6.4 66.8- 2.7 0.7---- 2.8------------
1999-08-04 17.7 24.9 8.5 5.4 66.5- 1.3 0.3---- 0.0------------
1999-08-03 16.8 23.4 9.5 9.1 78.0- 7.3 0.3---- 0.0------------
1999-08-02 16.6 22.9 10.9 8.3 82.5- 7.7 1.0---- 0.0------------
1999-08-01 18.0 23.9 11.8 9.4 77.0- 5.0 1.0---- 0.0------------
1999-07-31 18.7 25.2 10.6 7.3 59.3- 3.0 1.7---- 0.0------------
1999-07-30 17.9 24.2 10.5 7.2 64.8- 1.0 2.0---- 0.0------------
1999-07-29 17.6 23.5 11.4 9.9 68.8- 1.3 3.0---- 0.0------------
1999-07-28 18.6 24.9 12.8 12.8 72.3- 1.3 1.3---- 1.7------------
1999-07-27 19.3 23.9 16.2 13.8 86.3- 4.7 1.7---- 0.0------------
1999-07-26 20.1 26.8 12.3 8.9 76.8- 1.0 0.7---- 0.0------------
1999-07-25 18.1 24.6 11.4 7.0 76.5- 2.0 0.0---- 0.0------------
1999-07-24 16.7 20.9 11.9 8.4 79.8- 7.7 0.7---- 0.0------------
1999-07-23 15.7 20.4 13.4 11.7 92.5- 8.0 0.3---- 6.8------------
1999-07-22 20.3 23.9 17.5 13.3 71.8- 7.7 1.3---- 6.2------------
1999-07-21 21.8 28.8 15.5 11.9 68.5- 4.0 0.3---- 0.1------------
1999-07-20 21.9 28.5 13.4 12.0 62.8- 0.3 0.7---- 0.0------------
1999-07-19 18.9 27.5 9.5 7.3 74.8- 1.0 0.7---- 0.0------------
1999-07-18 18.8 25.4 9.5 5.8 63.8- 1.3 0.0---- 0.0------------
1999-07-17 18.0 22.9 11.5 8.5 67.8- 2.3 0.3---- 0.0------------
1999-07-16 16.3 21.1 11.7 10.4 74.5- 5.7 1.0---- 1.6------------
1999-07-15 17.7 22.4 15.0 10.9 65.3- 4.7 1.7---- 0.0------------
1999-07-14 21.2 27.4 17.1 14.8 79.5- 6.3 3.0---- 0.9------------
1999-07-13 21.0 25.5 17.1 13.3 82.0- 5.7 0.7---- 10.0------------
1999-07-12 21.1 27.4 14.7 10.9 69.0- 3.7 0.7---- 0.5------------
1999-07-11 19.9 23.6 17.1 13.8 78.0- 5.7 2.7---- 0.6------------
1999-07-10 19.8 23.9 17.1 14.3 73.8- 8.0 3.3---- 0.0------------
1999-07-09 19.4 21.4 17.1 15.4 91.3- 7.7 1.7---- 0.0------------
1999-07-08 18.2 19.9 17.1 15.3 93.5- 7.7 2.7---- 6.7------------
1999-07-07 22.3 29.1 19.1 15.3 81.5- 7.7 2.0---- 18.8------------
1999-07-06 25.0 32.0 15.4 13.8 63.3- 0.7 0.7---- 0.0------------
1999-07-05 24.8 31.5 15.9 15.9 67.0- 0.0 0.7---- 0.0------------
1999-07-04 21.6 29.8 12.4 10.9 69.5- 0.0 1.0---- 0.0------------
1999-07-03 21.1 25.9 15.1 11.4 79.3- 1.7 0.7---- 0.0------------
1999-07-02 20.1 24.4 14.9 10.9 75.5- 3.7 0.7---- 0.8------------
1999-07-01 19.6 24.9 12.5 7.8 75.5- 5.0 0.7---- 1.3------------
1999-06-30 20.2 25.1 13.1 8.4 64.5- 1.0 0.7---- 0.0------------
1999-06-29 18.9 24.1 14.2 9.9 73.0- 2.0 1.3---- 0.0------------
1999-06-28 19.9 26.9 12.6 8.2 70.0- 2.7 0.3---- 0.0------------
1999-06-27 19.1 25.9 10.1 5.8 66.5- 0.3 1.0---- 0.0------------
1999-06-26 14.9 23.0 6.8 3.4 78.0- 4.7 0.3---- 0.0------------
1999-06-25 13.0 18.9 5.6 1.3 74.3- 1.0 0.7---- 0.0------------
1999-06-24 12.0 15.3 9.4 8.1 81.5- 7.0 1.0---- 0.0------------
1999-06-23 9.4 11.4 7.5 6.9 95.5- 8.0 2.0---- 2.0------------
1999-06-22 11.1 16.7 8.4 7.0 95.5- 8.0 2.7---- 29.9------------
1999-06-21 17.6 21.9 13.9 13.3 93.5- 7.7 0.7---- 34.4------------
1999-06-20 17.8 21.4 14.1 13.0 82.3- 7.7 1.0---- 1.6------------
1999-06-19 15.1 18.2 13.4 12.3 81.3- 8.0 1.0---- 0.0------------
1999-06-18 17.7 20.1 16.1 14.8 95.0- 7.7 0.0---- 8.9------------
1999-06-17 18.5 22.2 16.4 15.3 94.8- 7.7 0.7---- 66.8------------
1999-06-16 17.3 20.9 14.9 13.8 95.8- 8.0 0.3---- 0.6------------
331.1 ms

 

Źródłem pochodzenia danych jest Instytut Meteorologii i Gospodarki Wodnej – Państwowy Instytut Badawczy. Dane Instytutu Meteorologii i Gospodarki Wodnej – Państwowego Instytutu Badawczego zostały przetworzone.

Dane źródłowe można odnaleźć na stronie https://dane.imgw.pl